sensor_id;sensor_type;location;lat;lon;timestamp;temperature;humidity
30893;DHT22;17595;50.884;4.346;2023-05-29T00:00:16;17.80;99.90
30893;DHT22;17595;50.884;4.346;2023-05-29T00:02:46;17.80;99.90
30893;DHT22;17595;50.884;4.346;2023-05-29T00:05:11;17.70;99.90
30893;DHT22;17595;50.884;4.346;2023-05-29T00:07:39;17.70;99.90
30893;DHT22;17595;50.884;4.346;2023-05-29T00:10:05;17.50;99.90
30893;DHT22;17595;50.884;4.346;2023-05-29T00:12:32;17.40;99.90
30893;DHT22;17595;50.884;4.346;2023-05-29T00:14:57;17.40;99.90
30893;DHT22;17595;50.884;4.346;2023-05-29T00:17:23;17.40;99.90
30893;DHT22;17595;50.884;4.346;2023-05-29T00:19:49;17.40;99.90
30893;DHT22;17595;50.884;4.346;2023-05-29T00:22:15;17.20;99.90
30893;DHT22;17595;50.884;4.346;2023-05-29T00:24:41;17.10;99.90
30893;DHT22;17595;50.884;4.346;2023-05-29T00:27:06;17.10;99.90
30893;DHT22;17595;50.884;4.346;2023-05-29T00:29:34;17.00;99.90
30893;DHT22;17595;50.884;4.346;2023-05-29T00:31:59;17.10;99.90
30893;DHT22;17595;50.884;4.346;2023-05-29T00:34:25;17.10;99.90
30893;DHT22;17595;50.884;4.346;2023-05-29T00:36:51;17.20;99.90
30893;DHT22;17595;50.884;4.346;2023-05-29T00:39:17;17.20;99.90
30893;DHT22;17595;50.884;4.346;2023-05-29T00:41:43;17.20;99.90
30893;DHT22;17595;50.884;4.346;2023-05-29T00:44:09;17.00;99.90
30893;DHT22;17595;50.884;4.346;2023-05-29T00:46:34;16.90;99.90
30893;DHT22;17595;50.884;4.346;2023-05-29T00:49:01;16.80;99.90
30893;DHT22;17595;50.884;4.346;2023-05-29T00:51:27;16.80;99.90
30893;DHT22;17595;50.884;4.346;2023-05-29T00:53:54;16.80;99.90
30893;DHT22;17595;50.884;4.346;2023-05-29T00:56:21;16.80;99.90
30893;DHT22;17595;50.884;4.346;2023-05-29T00:58:51;16.80;99.90
30893;DHT22;17595;50.884;4.346;2023-05-29T01:01:18;16.80;99.90
30893;DHT22;17595;50.884;4.346;2023-05-29T01:03:44;16.90;99.90
30893;DHT22;17595;50.884;4.346;2023-05-29T01:06:10;16.70;99.90
30893;DHT22;17595;50.884;4.346;2023-05-29T01:08:36;16.80;99.90
30893;DHT22;17595;50.884;4.346;2023-05-29T01:13:45;16.70;99.90
30893;DHT22;17595;50.884;4.346;2023-05-29T01:16:31;16.50;99.90
30893;DHT22;17595;50.884;4.346;2023-05-29T01:19:16;16.40;99.90
30893;DHT22;17595;50.884;4.346;2023-05-29T01:22:00;16.20;99.90
30893;DHT22;17595;50.884;4.346;2023-05-29T01:24:58;16.30;99.90
30893;DHT22;17595;50.884;4.346;2023-05-29T01:27:29;16.40;99.90
30893;DHT22;17595;50.884;4.346;2023-05-29T01:29:56;16.30;99.90
30893;DHT22;17595;50.884;4.346;2023-05-29T01:32:24;16.30;99.90
30893;DHT22;17595;50.884;4.346;2023-05-29T01:34:51;16.30;99.90
30893;DHT22;17595;50.884;4.346;2023-05-29T01:37:17;16.40;99.90
30893;DHT22;17595;50.884;4.346;2023-05-29T01:39:42;16.50;99.90
30893;DHT22;17595;50.884;4.346;2023-05-29T01:42:08;16.50;99.90
30893;DHT22;17595;50.884;4.346;2023-05-29T01:44:35;16.50;99.90
30893;DHT22;17595;50.884;4.346;2023-05-29T01:47:02;16.50;99.90
30893;DHT22;17595;50.884;4.346;2023-05-29T01:49:28;16.40;99.90
30893;DHT22;17595;50.884;4.346;2023-05-29T01:51:55;16.40;99.90
30893;DHT22;17595;50.884;4.346;2023-05-29T01:54:21;16.40;99.90
30893;DHT22;17595;50.884;4.346;2023-05-29T01:56:47;16.40;99.90
30893;DHT22;17595;50.884;4.346;2023-05-29T01:59:13;16.60;99.90
30893;DHT22;17595;50.884;4.346;2023-05-29T02:01:39;16.50;99.90
30893;DHT22;17595;50.884;4.346;2023-05-29T02:04:05;16.30;99.90
30893;DHT22;17595;50.884;4.346;2023-05-29T02:06:31;16.20;99.90
30893;DHT22;17595;50.884;4.346;2023-05-29T02:08:58;16.20;99.90
30893;DHT22;17595;50.884;4.346;2023-05-29T02:11:24;16.10;99.90
30893;DHT22;17595;50.884;4.346;2023-05-29T02:13:51;16.00;99.90
30893;DHT22;17595;50.884;4.346;2023-05-29T02:16:17;16.10;99.90
30893;DHT22;17595;50.884;4.346;2023-05-29T02:18:47;16.10;99.90
30893;DHT22;17595;50.884;4.346;2023-05-29T02:21:12;16.20;99.90
30893;DHT22;17595;50.884;4.346;2023-05-29T02:23:38;16.20;99.90
30893;DHT22;17595;50.884;4.346;2023-05-29T02:26:04;16.20;99.90
30893;DHT22;17595;50.884;4.346;2023-05-29T02:28:30;16.10;99.90
30893;DHT22;17595;50.884;4.346;2023-05-29T02:30:55;16.10;99.90
30893;DHT22;17595;50.884;4.346;2023-05-29T02:33:21;16.10;99.90
30893;DHT22;17595;50.884;4.346;2023-05-29T02:35:47;16.10;99.90
30893;DHT22;17595;50.884;4.346;2023-05-29T02:38:12;16.10;99.90
30893;DHT22;17595;50.884;4.346;2023-05-29T02:40:38;16.20;99.90
30893;DHT22;17595;50.884;4.346;2023-05-29T02:43:05;16.10;99.90
30893;DHT22;17595;50.884;4.346;2023-05-29T02:45:31;16.10;99.90
30893;DHT22;17595;50.884;4.346;2023-05-29T02:47:57;16.00;99.90
30893;DHT22;17595;50.884;4.346;2023-05-29T02:50:22;16.10;99.90
30893;DHT22;17595;50.884;4.346;2023-05-29T02:52:48;16.00;99.90
30893;DHT22;17595;50.884;4.346;2023-05-29T02:55:13;15.80;99.90
30893;DHT22;17595;50.884;4.346;2023-05-29T02:57:39;15.70;99.90
30893;DHT22;17595;50.884;4.346;2023-05-29T03:00:06;15.80;99.90
30893;DHT22;17595;50.884;4.346;2023-05-29T03:02:33;15.70;99.90
30893;DHT22;17595;50.884;4.346;2023-05-29T03:05:00;15.60;99.90
30893;DHT22;17595;50.884;4.346;2023-05-29T03:07:26;15.60;99.90
30893;DHT22;17595;50.884;4.346;2023-05-29T03:09:52;15.50;99.90
30893;DHT22;17595;50.884;4.346;2023-05-29T03:12:17;15.50;99.90
30893;DHT22;17595;50.884;4.346;2023-05-29T03:14:44;15.30;99.90
30893;DHT22;17595;50.884;4.346;2023-05-29T03:17:10;15.30;99.90
30893;DHT22;17595;50.884;4.346;2023-05-29T03:19:35;15.30;99.90
30893;DHT22;17595;50.884;4.346;2023-05-29T03:22:02;15.30;99.90
30893;DHT22;17595;50.884;4.346;2023-05-29T03:24:28;15.30;99.90
30893;DHT22;17595;50.884;4.346;2023-05-29T03:26:53;15.30;99.90
30893;DHT22;17595;50.884;4.346;2023-05-29T03:29:19;15.40;99.90
30893;DHT22;17595;50.884;4.346;2023-05-29T03:31:45;15.20;99.90
30893;DHT22;17595;50.884;4.346;2023-05-29T03:34:10;15.10;99.90
30893;DHT22;17595;50.884;4.346;2023-05-29T03:36:36;15.10;99.90
30893;DHT22;17595;50.884;4.346;2023-05-29T03:39:02;15.10;99.90
30893;DHT22;17595;50.884;4.346;2023-05-29T03:41:28;15.10;99.90
30893;DHT22;17595;50.884;4.346;2023-05-29T03:43:54;15.00;99.90
30893;DHT22;17595;50.884;4.346;2023-05-29T03:46:19;15.00;99.90
30893;DHT22;17595;50.884;4.346;2023-05-29T03:48:45;15.10;99.90
30893;DHT22;17595;50.884;4.346;2023-05-29T03:51:12;15.00;99.90
30893;DHT22;17595;50.884;4.346;2023-05-29T03:53:37;14.90;99.90
30893;DHT22;17595;50.884;4.346;2023-05-29T03:56:04;14.90;99.90
30893;DHT22;17595;50.884;4.346;2023-05-29T03:58:30;15.00;99.90
30893;DHT22;17595;50.884;4.346;2023-05-29T04:00:56;14.90;99.90
30893;DHT22;17595;50.884;4.346;2023-05-29T04:03:22;14.90;99.90
30893;DHT22;17595;50.884;4.346;2023-05-29T04:05:48;15.00;99.90
30893;DHT22;17595;50.884;4.346;2023-05-29T04:08:14;14.80;99.90
30893;DHT22;17595;50.884;4.346;2023-05-29T04:10:39;14.90;99.90
30893;DHT22;17595;50.884;4.346;2023-05-29T04:13:05;15.00;99.90
30893;DHT22;17595;50.884;4.346;2023-05-29T04:15:34;14.80;99.90
30893;DHT22;17595;50.884;4.346;2023-05-29T04:18:00;14.80;99.90
30893;DHT22;17595;50.884;4.346;2023-05-29T04:20:25;14.90;99.90
30893;DHT22;17595;50.884;4.346;2023-05-29T04:22:51;14.90;99.90
30893;DHT22;17595;50.884;4.346;2023-05-29T04:25:17;14.80;99.90
30893;DHT22;17595;50.884;4.346;2023-05-29T04:27:44;14.70;99.90
30893;DHT22;17595;50.884;4.346;2023-05-29T04:30:15;14.90;99.90
30893;DHT22;17595;50.884;4.346;2023-05-29T04:32:41;14.80;99.90
30893;DHT22;17595;50.884;4.346;2023-05-29T04:35:07;14.70;99.90
30893;DHT22;17595;50.884;4.346;2023-05-29T04:37:33;14.70;99.90
30893;DHT22;17595;50.884;4.346;2023-05-29T04:40:07;14.70;99.90
30893;DHT22;17595;50.884;4.346;2023-05-29T04:42:37;14.80;99.90
30893;DHT22;17595;50.884;4.346;2023-05-29T04:45:03;14.80;99.90
30893;DHT22;17595;50.884;4.346;2023-05-29T04:47:32;14.80;99.90
30893;DHT22;17595;50.884;4.346;2023-05-29T04:50:01;14.60;99.90
30893;DHT22;17595;50.884;4.346;2023-05-29T04:52:27;14.70;99.90
30893;DHT22;17595;50.884;4.346;2023-05-29T04:54:54;14.50;99.90
30893;DHT22;17595;50.884;4.346;2023-05-29T04:57:20;14.50;99.90
30893;DHT22;17595;50.884;4.346;2023-05-29T04:59:45;14.40;99.90
30893;DHT22;17595;50.884;4.346;2023-05-29T05:02:11;14.50;99.90
30893;DHT22;17595;50.884;4.346;2023-05-29T05:04:36;14.40;99.90
30893;DHT22;17595;50.884;4.346;2023-05-29T05:07:03;14.40;99.90
30893;DHT22;17595;50.884;4.346;2023-05-29T05:09:29;14.50;99.90
30893;DHT22;17595;50.884;4.346;2023-05-29T05:11:55;14.60;99.90
30893;DHT22;17595;50.884;4.346;2023-05-29T05:14:22;14.60;99.90
30893;DHT22;17595;50.884;4.346;2023-05-29T05:16:47;14.50;99.90
30893;DHT22;17595;50.884;4.346;2023-05-29T05:19:13;14.60;99.90
30893;DHT22;17595;50.884;4.346;2023-05-29T05:21:38;14.70;99.90
30893;DHT22;17595;50.884;4.346;2023-05-29T05:24:04;14.80;99.90
30893;DHT22;17595;50.884;4.346;2023-05-29T05:26:30;15.00;99.90
30893;DHT22;17595;50.884;4.346;2023-05-29T05:28:55;14.90;99.90
30893;DHT22;17595;50.884;4.346;2023-05-29T05:31:22;15.00;99.90
30893;DHT22;17595;50.884;4.346;2023-05-29T05:33:47;14.90;99.90
30893;DHT22;17595;50.884;4.346;2023-05-29T05:36:13;14.90;99.90
30893;DHT22;17595;50.884;4.346;2023-05-29T05:38:39;14.90;99.90
30893;DHT22;17595;50.884;4.346;2023-05-29T05:41:05;15.00;99.90
30893;DHT22;17595;50.884;4.346;2023-05-29T05:43:31;15.00;99.90
30893;DHT22;17595;50.884;4.346;2023-05-29T05:45:56;15.10;99.90
30893;DHT22;17595;50.884;4.346;2023-05-29T05:48:22;15.10;99.90
30893;DHT22;17595;50.884;4.346;2023-05-29T05:50:47;15.30;99.90
30893;DHT22;17595;50.884;4.346;2023-05-29T05:53:13;15.20;99.90
30893;DHT22;17595;50.884;4.346;2023-05-29T05:55:39;15.00;99.90
30893;DHT22;17595;50.884;4.346;2023-05-29T05:58:04;14.90;99.90
30893;DHT22;17595;50.884;4.346;2023-05-29T06:00:30;14.90;99.90
30893;DHT22;17595;50.884;4.346;2023-05-29T06:02:55;14.80;99.90
30893;DHT22;17595;50.884;4.346;2023-05-29T06:05:22;14.80;99.90
30893;DHT22;17595;50.884;4.346;2023-05-29T06:07:47;15.00;99.90
30893;DHT22;17595;50.884;4.346;2023-05-29T06:10:14;15.10;99.90
30893;DHT22;17595;50.884;4.346;2023-05-29T06:12:39;15.20;99.90
30893;DHT22;17595;50.884;4.346;2023-05-29T06:15:06;15.10;99.90
30893;DHT22;17595;50.884;4.346;2023-05-29T06:17:33;15.20;99.90
30893;DHT22;17595;50.884;4.346;2023-05-29T06:19:59;15.30;99.90
30893;DHT22;17595;50.884;4.346;2023-05-29T06:22:25;15.50;99.90
30893;DHT22;17595;50.884;4.346;2023-05-29T06:24:51;15.40;99.90
30893;DHT22;17595;50.884;4.346;2023-05-29T06:27:17;15.30;99.90
30893;DHT22;17595;50.884;4.346;2023-05-29T06:29:44;15.30;99.90
30893;DHT22;17595;50.884;4.346;2023-05-29T06:32:09;15.30;99.90
30893;DHT22;17595;50.884;4.346;2023-05-29T06:34:35;15.50;99.90
30893;DHT22;17595;50.884;4.346;2023-05-29T06:37:00;15.60;99.90
30893;DHT22;17595;50.884;4.346;2023-05-29T06:39:26;15.60;99.90
30893;DHT22;17595;50.884;4.346;2023-05-29T06:41:52;15.80;99.90
30893;DHT22;17595;50.884;4.346;2023-05-29T06:44:18;16.00;99.90
30893;DHT22;17595;50.884;4.346;2023-05-29T06:46:44;15.90;99.90
30893;DHT22;17595;50.884;4.346;2023-05-29T06:49:10;16.00;99.90
30893;DHT22;17595;50.884;4.346;2023-05-29T06:51:36;15.60;99.90
30893;DHT22;17595;50.884;4.346;2023-05-29T06:54:02;15.50;99.90
30893;DHT22;17595;50.884;4.346;2023-05-29T06:56:27;15.50;99.90
30893;DHT22;17595;50.884;4.346;2023-05-29T06:58:53;15.60;99.90
30893;DHT22;17595;50.884;4.346;2023-05-29T07:01:19;15.70;99.90
30893;DHT22;17595;50.884;4.346;2023-05-29T07:03:46;15.60;99.90
30893;DHT22;17595;50.884;4.346;2023-05-29T07:06:12;15.70;99.90
30893;DHT22;17595;50.884;4.346;2023-05-29T07:08:37;15.70;99.90
30893;DHT22;17595;50.884;4.346;2023-05-29T07:11:03;15.70;99.90
30893;DHT22;17595;50.884;4.346;2023-05-29T07:13:28;15.90;99.90
30893;DHT22;17595;50.884;4.346;2023-05-29T07:15:54;15.80;99.90
30893;DHT22;17595;50.884;4.346;2023-05-29T07:18:19;15.70;99.90
30893;DHT22;17595;50.884;4.346;2023-05-29T07:20:45;15.60;99.90
30893;DHT22;17595;50.884;4.346;2023-05-29T07:23:11;15.70;99.90
30893;DHT22;17595;50.884;4.346;2023-05-29T07:25:36;15.90;99.90
30893;DHT22;17595;50.884;4.346;2023-05-29T07:28:03;16.00;99.90
30893;DHT22;17595;50.884;4.346;2023-05-29T07:30:28;16.00;99.90
30893;DHT22;17595;50.884;4.346;2023-05-29T07:32:54;16.10;99.90
30893;DHT22;17595;50.884;4.346;2023-05-29T07:35:20;16.10;99.90
30893;DHT22;17595;50.884;4.346;2023-05-29T07:37:45;16.20;99.90
30893;DHT22;17595;50.884;4.346;2023-05-29T07:40:13;16.10;99.90
30893;DHT22;17595;50.884;4.346;2023-05-29T07:42:39;15.90;99.90
30893;DHT22;17595;50.884;4.346;2023-05-29T07:45:05;15.90;99.90
30893;DHT22;17595;50.884;4.346;2023-05-29T07:47:30;16.10;99.90
30893;DHT22;17595;50.884;4.346;2023-05-29T07:49:56;16.30;99.90
30893;DHT22;17595;50.884;4.346;2023-05-29T07:52:21;16.30;99.90
30893;DHT22;17595;50.884;4.346;2023-05-29T07:54:47;16.50;99.90
30893;DHT22;17595;50.884;4.346;2023-05-29T07:57:13;16.50;99.90
30893;DHT22;17595;50.884;4.346;2023-05-29T07:59:41;16.40;99.90
30893;DHT22;17595;50.884;4.346;2023-05-29T08:02:08;16.30;99.90
30893;DHT22;17595;50.884;4.346;2023-05-29T08:04:33;16.40;99.90
30893;DHT22;17595;50.884;4.346;2023-05-29T08:07:00;16.40;99.90
30893;DHT22;17595;50.884;4.346;2023-05-29T08:09:26;16.50;99.90
30893;DHT22;17595;50.884;4.346;2023-05-29T08:11:52;16.60;99.90
30893;DHT22;17595;50.884;4.346;2023-05-29T08:14:18;16.70;99.90
30893;DHT22;17595;50.884;4.346;2023-05-29T08:16:43;16.70;99.90
30893;DHT22;17595;50.884;4.346;2023-05-29T08:19:09;16.60;99.90
30893;DHT22;17595;50.884;4.346;2023-05-29T08:21:35;16.80;99.90
30893;DHT22;17595;50.884;4.346;2023-05-29T08:24:02;16.80;99.90
30893;DHT22;17595;50.884;4.346;2023-05-29T08:26:31;17.00;99.90
30893;DHT22;17595;50.884;4.346;2023-05-29T08:28:57;17.00;99.90
30893;DHT22;17595;50.884;4.346;2023-05-29T08:31:22;16.90;99.90
30893;DHT22;17595;50.884;4.346;2023-05-29T08:33:52;16.90;99.90
30893;DHT22;17595;50.884;4.346;2023-05-29T08:36:18;16.70;99.90
30893;DHT22;17595;50.884;4.346;2023-05-29T08:38:47;17.00;99.90
30893;DHT22;17595;50.884;4.346;2023-05-29T08:43:59;17.10;99.90
30893;DHT22;17595;50.884;4.346;2023-05-29T08:46:28;17.10;99.90
30893;DHT22;17595;50.884;4.346;2023-05-29T08:48:57;17.30;99.90
30893;DHT22;17595;50.884;4.346;2023-05-29T08:51:27;17.30;99.90
30893;DHT22;17595;50.884;4.346;2023-05-29T08:53:56;17.20;99.90
30893;DHT22;17595;50.884;4.346;2023-05-29T08:56:22;17.20;99.90
30893;DHT22;17595;50.884;4.346;2023-05-29T08:58:48;17.40;99.90
30893;DHT22;17595;50.884;4.346;2023-05-29T09:01:14;17.50;99.90
30893;DHT22;17595;50.884;4.346;2023-05-29T09:03:40;17.60;99.90
30893;DHT22;17595;50.884;4.346;2023-05-29T09:06:07;17.60;99.90
30893;DHT22;17595;50.884;4.346;2023-05-29T09:08:34;17.60;99.90
30893;DHT22;17595;50.884;4.346;2023-05-29T09:11:00;17.70;99.90
30893;DHT22;17595;50.884;4.346;2023-05-29T09:13:26;17.80;99.90
30893;DHT22;17595;50.884;4.346;2023-05-29T09:15:58;17.70;99.90
30893;DHT22;17595;50.884;4.346;2023-05-29T09:18:23;17.70;99.90
30893;DHT22;17595;50.884;4.346;2023-05-29T09:20:49;17.60;99.90
30893;DHT22;17595;50.884;4.346;2023-05-29T09:23:15;17.80;99.90
30893;DHT22;17595;50.884;4.346;2023-05-29T09:25:41;17.50;99.90
30893;DHT22;17595;50.884;4.346;2023-05-29T09:28:10;17.20;99.90
30893;DHT22;17595;50.884;4.346;2023-05-29T09:30:39;17.00;99.90
30893;DHT22;17595;50.884;4.346;2023-05-29T09:33:13;17.20;99.90
30893;DHT22;17595;50.884;4.346;2023-05-29T09:35:40;17.50;99.90
30893;DHT22;17595;50.884;4.346;2023-05-29T09:38:12;17.70;99.90
30893;DHT22;17595;50.884;4.346;2023-05-29T09:40:39;17.50;99.90
30893;DHT22;17595;50.884;4.346;2023-05-29T09:43:31;17.60;99.90
30893;DHT22;17595;50.884;4.346;2023-05-29T09:45:58;17.60;99.90
30893;DHT22;17595;50.884;4.346;2023-05-29T09:48:24;17.60;99.90
30893;DHT22;17595;50.884;4.346;2023-05-29T09:50:51;17.40;99.90
30893;DHT22;17595;50.884;4.346;2023-05-29T09:53:24;17.60;99.90
30893;DHT22;17595;50.884;4.346;2023-05-29T09:55:51;17.60;99.90
30893;DHT22;17595;50.884;4.346;2023-05-29T09:58:24;17.70;99.90
30893;DHT22;17595;50.884;4.346;2023-05-29T10:00:52;17.70;99.90
30893;DHT22;17595;50.884;4.346;2023-05-29T10:03:19;17.70;99.90
30893;DHT22;17595;50.884;4.346;2023-05-29T10:05:50;17.90;99.90
30893;DHT22;17595;50.884;4.346;2023-05-29T10:08:18;18.00;99.90
30893;DHT22;17595;50.884;4.346;2023-05-29T10:10:48;17.90;99.90
30893;DHT22;17595;50.884;4.346;2023-05-29T10:13:15;17.80;99.90
30893;DHT22;17595;50.884;4.346;2023-05-29T10:15:45;17.80;99.90
30893;DHT22;17595;50.884;4.346;2023-05-29T10:18:19;18.00;99.90
30893;DHT22;17595;50.884;4.346;2023-05-29T10:20:50;18.10;99.90
30893;DHT22;17595;50.884;4.346;2023-05-29T10:23:22;18.20;99.90
30893;DHT22;17595;50.884;4.346;2023-05-29T10:25:53;18.20;99.90
30893;DHT22;17595;50.884;4.346;2023-05-29T10:28:22;18.20;99.90
30893;DHT22;17595;50.884;4.346;2023-05-29T10:31:05;18.10;99.90
30893;DHT22;17595;50.884;4.346;2023-05-29T10:34:12;18.10;99.90
30893;DHT22;17595;50.884;4.346;2023-05-29T10:36:44;17.90;99.90
30893;DHT22;17595;50.884;4.346;2023-05-29T10:39:12;17.90;99.90
30893;DHT22;17595;50.884;4.346;2023-05-29T10:41:38;17.90;99.90
30893;DHT22;17595;50.884;4.346;2023-05-29T10:47:03;17.90;99.90
30893;DHT22;17595;50.884;4.346;2023-05-29T10:49:29;18.10;99.90
30893;DHT22;17595;50.884;4.346;2023-05-29T10:51:57;18.10;99.90
30893;DHT22;17595;50.884;4.346;2023-05-29T10:54:25;18.10;99.90
30893;DHT22;17595;50.884;4.346;2023-05-29T10:56:56;18.10;99.90
30893;DHT22;17595;50.884;4.346;2023-05-29T10:59:23;18.40;99.90
30893;DHT22;17595;50.884;4.346;2023-05-29T11:01:53;18.10;99.90
30893;DHT22;17595;50.884;4.346;2023-05-29T11:06:51;18.40;99.90
30893;DHT22;17595;50.884;4.346;2023-05-29T11:12:13;18.70;99.90
30893;DHT22;17595;50.884;4.346;2023-05-29T11:14:56;18.80;99.90
30893;DHT22;17595;50.884;4.346;2023-05-29T11:20:06;18.80;99.90
30893;DHT22;17595;50.884;4.346;2023-05-29T11:22:53;19.00;99.90
30893;DHT22;17595;50.884;4.346;2023-05-29T11:25:21;18.90;99.90
30893;DHT22;17595;50.884;4.346;2023-05-29T11:27:47;19.00;99.90
30893;DHT22;17595;50.884;4.346;2023-05-29T11:30:13;19.10;99.90
30893;DHT22;17595;50.884;4.346;2023-05-29T11:32:40;18.80;99.90
30893;DHT22;17595;50.884;4.346;2023-05-29T11:35:10;18.70;99.90
30893;DHT22;17595;50.884;4.346;2023-05-29T11:37:38;18.90;99.90
30893;DHT22;17595;50.884;4.346;2023-05-29T11:40:05;19.10;99.90
30893;DHT22;17595;50.884;4.346;2023-05-29T11:42:37;19.20;99.90
30893;DHT22;17595;50.884;4.346;2023-05-29T11:45:18;19.00;99.90
30893;DHT22;17595;50.884;4.346;2023-05-29T11:47:55;18.90;99.90
30893;DHT22;17595;50.884;4.346;2023-05-29T11:50:26;19.00;99.90
30893;DHT22;17595;50.884;4.346;2023-05-29T11:52:52;19.30;99.90
30893;DHT22;17595;50.884;4.346;2023-05-29T11:55:19;19.60;99.90
30893;DHT22;17595;50.884;4.346;2023-05-29T11:57:55;19.20;99.90
30893;DHT22;17595;50.884;4.346;2023-05-29T12:00:21;19.40;99.90
30893;DHT22;17595;50.884;4.346;2023-05-29T12:02:47;19.60;99.90
30893;DHT22;17595;50.884;4.346;2023-05-29T12:05:15;19.50;99.90
30893;DHT22;17595;50.884;4.346;2023-05-29T12:07:51;19.60;99.90
30893;DHT22;17595;50.884;4.346;2023-05-29T12:10:19;19.80;99.90
30893;DHT22;17595;50.884;4.346;2023-05-29T12:12:53;20.00;99.90
30893;DHT22;17595;50.884;4.346;2023-05-29T12:15:19;19.90;99.90
30893;DHT22;17595;50.884;4.346;2023-05-29T12:17:49;20.00;99.90
30893;DHT22;17595;50.884;4.346;2023-05-29T12:20:15;20.30;99.90
30893;DHT22;17595;50.884;4.346;2023-05-29T12:22:42;20.20;99.90
30893;DHT22;17595;50.884;4.346;2023-05-29T12:25:10;19.90;99.90
30893;DHT22;17595;50.884;4.346;2023-05-29T12:27:40;20.00;99.90
30893;DHT22;17595;50.884;4.346;2023-05-29T12:32:45;20.00;99.90
30893;DHT22;17595;50.884;4.346;2023-05-29T12:35:17;20.00;99.90
30893;DHT22;17595;50.884;4.346;2023-05-29T12:38:04;20.20;99.90
30893;DHT22;17595;50.884;4.346;2023-05-29T12:40:31;20.40;99.90
30893;DHT22;17595;50.884;4.346;2023-05-29T12:43:07;20.30;99.90
30893;DHT22;17595;50.884;4.346;2023-05-29T12:45:35;20.10;99.90
30893;DHT22;17595;50.884;4.346;2023-05-29T12:48:04;20.30;99.90
30893;DHT22;17595;50.884;4.346;2023-05-29T12:53:01;19.70;99.90
30893;DHT22;17595;50.884;4.346;2023-05-29T12:55:28;19.60;99.90
30893;DHT22;17595;50.884;4.346;2023-05-29T12:57:55;19.90;99.90
30893;DHT22;17595;50.884;4.346;2023-05-29T13:00:23;20.20;99.90
30893;DHT22;17595;50.884;4.346;2023-05-29T13:02:49;20.50;99.90
30893;DHT22;17595;50.884;4.346;2023-05-29T13:05:15;20.70;99.90
30893;DHT22;17595;50.884;4.346;2023-05-29T13:07:44;20.60;99.90
30893;DHT22;17595;50.884;4.346;2023-05-29T13:10:11;20.60;99.90
30893;DHT22;17595;50.884;4.346;2023-05-29T13:12:36;20.70;99.90
30893;DHT22;17595;50.884;4.346;2023-05-29T13:15:02;20.90;99.90
30893;DHT22;17595;50.884;4.346;2023-05-29T13:17:28;20.90;99.90
30893;DHT22;17595;50.884;4.346;2023-05-29T13:19:54;20.90;99.90
30893;DHT22;17595;50.884;4.346;2023-05-29T13:22:19;21.00;99.90
30893;DHT22;17595;50.884;4.346;2023-05-29T13:24:45;20.80;99.90
30893;DHT22;17595;50.884;4.346;2023-05-29T13:27:11;21.00;99.90
30893;DHT22;17595;50.884;4.346;2023-05-29T13:29:39;21.20;99.90
30893;DHT22;17595;50.884;4.346;2023-05-29T13:32:06;21.10;99.90
30893;DHT22;17595;50.884;4.346;2023-05-29T13:34:32;21.10;99.90
30893;DHT22;17595;50.884;4.346;2023-05-29T13:36:57;21.00;99.90
30893;DHT22;17595;50.884;4.346;2023-05-29T13:39:23;21.00;99.90
30893;DHT22;17595;50.884;4.346;2023-05-29T13:41:50;21.00;99.90
30893;DHT22;17595;50.884;4.346;2023-05-29T13:44:16;20.90;99.90
30893;DHT22;17595;50.884;4.346;2023-05-29T13:46:42;20.90;99.90
30893;DHT22;17595;50.884;4.346;2023-05-29T13:49:07;21.10;99.90
30893;DHT22;17595;50.884;4.346;2023-05-29T13:51:33;21.10;99.90
30893;DHT22;17595;50.884;4.346;2023-05-29T13:54:01;21.10;99.90
30893;DHT22;17595;50.884;4.346;2023-05-29T13:56:27;21.50;99.90
30893;DHT22;17595;50.884;4.346;2023-05-29T13:58:53;21.60;99.90
30893;DHT22;17595;50.884;4.346;2023-05-29T14:01:20;21.70;99.90
30893;DHT22;17595;50.884;4.346;2023-05-29T14:03:47;22.10;99.90
30893;DHT22;17595;50.884;4.346;2023-05-29T14:06:12;22.50;99.90
30893;DHT22;17595;50.884;4.346;2023-05-29T14:08:38;22.50;99.90
30893;DHT22;17595;50.884;4.346;2023-05-29T14:11:04;21.90;99.90
30893;DHT22;17595;50.884;4.346;2023-05-29T14:13:30;21.80;99.90
30893;DHT22;17595;50.884;4.346;2023-05-29T14:15:56;21.90;99.90
30893;DHT22;17595;50.884;4.346;2023-05-29T14:18:23;21.90;99.90
30893;DHT22;17595;50.884;4.346;2023-05-29T14:20:48;22.00;99.90
30893;DHT22;17595;50.884;4.346;2023-05-29T14:23:17;22.10;99.90
30893;DHT22;17595;50.884;4.346;2023-05-29T14:25:42;22.10;99.90
30893;DHT22;17595;50.884;4.346;2023-05-29T14:28:08;22.20;99.90
30893;DHT22;17595;50.884;4.346;2023-05-29T14:30:34;21.90;99.90
30893;DHT22;17595;50.884;4.346;2023-05-29T14:33:00;22.10;99.90
30893;DHT22;17595;50.884;4.346;2023-05-29T14:35:25;22.40;99.90
30893;DHT22;17595;50.884;4.346;2023-05-29T14:37:51;22.60;99.90
30893;DHT22;17595;50.884;4.346;2023-05-29T14:40:17;22.00;99.90
30893;DHT22;17595;50.884;4.346;2023-05-29T14:42:46;21.70;99.90
30893;DHT22;17595;50.884;4.346;2023-05-29T14:45:12;21.70;99.90
30893;DHT22;17595;50.884;4.346;2023-05-29T14:47:39;21.60;99.90
30893;DHT22;17595;50.884;4.346;2023-05-29T14:50:05;21.50;99.90
30893;DHT22;17595;50.884;4.346;2023-05-29T14:52:31;21.40;99.90
30893;DHT22;17595;50.884;4.346;2023-05-29T14:54:56;21.50;99.90
30893;DHT22;17595;50.884;4.346;2023-05-29T14:57:22;21.40;99.90
30893;DHT22;17595;50.884;4.346;2023-05-29T14:59:48;21.60;99.90
30893;DHT22;17595;50.884;4.346;2023-05-29T15:02:14;21.80;99.90
30893;DHT22;17595;50.884;4.346;2023-05-29T15:04:40;22.20;99.90
30893;DHT22;17595;50.884;4.346;2023-05-29T15:07:06;22.50;99.90
30893;DHT22;17595;50.884;4.346;2023-05-29T15:09:31;22.60;99.90
30893;DHT22;17595;50.884;4.346;2023-05-29T15:11:57;22.50;99.90
30893;DHT22;17595;50.884;4.346;2023-05-29T15:14:24;22.30;99.90
30893;DHT22;17595;50.884;4.346;2023-05-29T15:16:49;22.30;99.90
30893;DHT22;17595;50.884;4.346;2023-05-29T15:19:15;22.30;99.90
30893;DHT22;17595;50.884;4.346;2023-05-29T15:21:41;22.30;99.90
30893;DHT22;17595;50.884;4.346;2023-05-29T15:24:06;22.20;99.90
30893;DHT22;17595;50.884;4.346;2023-05-29T15:26:33;22.40;99.90
30893;DHT22;17595;50.884;4.346;2023-05-29T15:28:59;22.20;99.90
30893;DHT22;17595;50.884;4.346;2023-05-29T15:31:25;22.20;99.90
30893;DHT22;17595;50.884;4.346;2023-05-29T15:33:51;22.10;99.90
30893;DHT22;17595;50.884;4.346;2023-05-29T15:36:16;22.00;99.90
30893;DHT22;17595;50.884;4.346;2023-05-29T15:38:44;22.20;99.90
30893;DHT22;17595;50.884;4.346;2023-05-29T15:41:10;22.50;99.90
30893;DHT22;17595;50.884;4.346;2023-05-29T15:43:35;22.70;99.50
30893;DHT22;17595;50.884;4.346;2023-05-29T15:46:01;22.50;99.30
30893;DHT22;17595;50.884;4.346;2023-05-29T15:48:28;22.00;99.70
30893;DHT22;17595;50.884;4.346;2023-05-29T15:50:53;22.00;99.80